Time;durP1;ratioP1;P1;durP2;ratioP2;P2;SDS_P1;SDS_P2;PMS_P1;PMS_P2;Temp;Humidity;BMP_temperature;BMP_pressure;BME280_temperature;BME280_humidity;BME280_pressure;Samples;Min_cycle;Max_cycle;Signal;HPM_P1;HPM_P2
2022/07/27 00:02:23;;;;;;;3.80;0.70;;;;;;;;;;5052519;28;20909;-82
2022/07/27 00:04:49;;;;;;;1.25;0.70;;;;;;;;;;5052556;28;20385;-82
2022/07/27 00:07:15;;;;;;;0.95;0.75;;;;;;;;;;5052376;28;20377;-82
2022/07/27 00:09:41;;;;;;;1.75;0.70;;;;;;;;;;5034992;28;20817;-82
2022/07/27 00:12:07;;;;;;;0.95;0.70;;;;;;;;;;5052118;28;20445;-82
2022/07/27 00:14:33;;;;;;;1.90;0.70;;;;;;;;;;5046710;28;20399;-83
2022/07/27 00:16:59;;;;;;;1.70;0.70;;;;;;;;;;5044286;28;20426;-82
2022/07/27 00:19:25;;;;;;;1.02;0.70;;;;;;;;;;5051795;28;20443;-83
2022/07/27 00:21:52;;;;;;;1.13;0.60;;;;;;;;;;5051722;28;20385;-83
2022/07/27 00:24:17;;;;;;;1.25;0.70;;;;;;;;;;5051422;28;20392;-83
2022/07/27 00:26:43;;;;;;;0.95;0.70;;;;;;;;;;5052364;28;20389;-83
2022/07/27 00:29:09;;;;;;;1.00;0.70;;;;;;;;;;5052383;28;20401;-81
2022/07/27 00:31:36;;;;;;;2.08;0.70;;;;;;;;;;5051423;28;20482;-82
2022/07/27 00:34:02;;;;;;;1.03;0.70;;;;;;;;;;5042004;28;20383;-81
2022/07/27 00:36:28;;;;;;;0.93;0.70;;;;;;;;;;5050191;28;20401;-82
2022/07/27 00:38:54;;;;;;;1.63;0.70;;;;;;;;;;5052195;28;20877;-82
2022/07/27 00:41:20;;;;;;;1.38;0.80;;;;;;;;;;5052048;28;20393;-82
2022/07/27 00:43:53;;;;;;;1.98;0.80;;;;;;;;;;5034211;28;20400;-82
2022/07/27 00:46:19;;;;;;;1.30;0.70;;;;;;;;;;5052092;28;20385;-82
2022/07/27 00:48:45;;;;;;;1.75;0.80;;;;;;;;;;5048664;28;20923;-82
2022/07/27 00:51:11;;;;;;;2.28;0.80;;;;;;;;;;5051996;28;20873;-82
2022/07/27 00:53:37;;;;;;;1.10;0.80;;;;;;;;;;5051834;28;20377;-82
2022/07/27 00:56:03;;;;;;;1.63;0.70;;;;;;;;;;5051981;28;20795;-82
2022/07/27 00:58:29;;;;;;;0.95;0.65;;;;;;;;;;5043244;28;20789;-82
2022/07/27 01:00:55;;;;;;;0.73;0.60;;;;;;;;;;5051961;28;20750;-82
2022/07/27 01:03:22;;;;;;;1.83;0.80;;;;;;;;;;5051745;28;20390;-82
2022/07/27 01:05:48;;;;;;;2.58;0.70;;;;;;;;;;5052298;28;20714;-82
2022/07/27 01:08:14;;;;;;;1.20;0.60;;;;;;;;;;5051917;28;20442;-82
2022/07/27 01:10:40;;;;;;;1.20;0.70;;;;;;;;;;5033829;28;20936;-82
2022/07/27 01:13:06;;;;;;;1.75;0.70;;;;;;;;;;5044167;28;20462;-82
2022/07/27 01:15:32;;;;;;;0.95;0.80;;;;;;;;;;5045824;28;20380;-82
2022/07/27 01:17:58;;;;;;;1.60;0.68;;;;;;;;;;5051679;28;20378;-82
2022/07/27 01:20:24;;;;;;;0.90;0.60;;;;;;;;;;5051817;28;20384;-82
2022/07/27 01:22:51;;;;;;;1.10;0.68;;;;;;;;;;5051678;28;20866;-82
2022/07/27 01:25:17;;;;;;;1.65;0.80;;;;;;;;;;5051759;28;20393;-82
2022/07/27 01:27:43;;;;;;;1.35;0.70;;;;;;;;;;5051592;28;20385;-82
2022/07/27 01:30:29;;;;;;;1.50;0.70;;;;;;;;;;5051851;28;20401;-82
2022/07/27 01:33:05;;;;;;;1.05;0.80;;;;;;;;;;5051610;28;20973;-82
2022/07/27 01:35:32;;;;;;;1.20;0.70;;;;;;;;;;5051759;28;20420;-82
2022/07/27 01:37:58;;;;;;;1.90;0.70;;;;;;;;;;5052081;28;20468;-82
2022/07/27 01:40:24;;;;;;;1.30;0.65;;;;;;;;;;5051609;28;20381;-82
2022/07/27 01:42:51;;;;;;;1.30;0.80;;;;;;;;;;5051725;28;20392;-82
2022/07/27 01:45:17;;;;;;;1.60;0.80;;;;;;;;;;5055648;28;20381;-82
2022/07/27 01:47:43;;;;;;;1.23;0.70;;;;;;;;;;5055128;28;20383;-82
2022/07/27 01:50:10;;;;;;;2.00;0.70;;;;;;;;;;5055108;28;20381;-82
2022/07/27 01:52:38;;;;;;;1.90;0.70;;;;;;;;;;5055380;28;20413;-82
2022/07/27 01:55:04;;;;;;;1.20;0.80;;;;;;;;;;5055010;28;20388;-82
2022/07/27 01:57:30;;;;;;;2.33;0.70;;;;;;;;;;5044175;28;20469;-82
2022/07/27 01:59:56;;;;;;;1.52;0.70;;;;;;;;;;5050889;28;20385;-82
2022/07/27 02:02:23;;;;;;;2.63;0.80;;;;;;;;;;5035693;28;20394;-82
2022/07/27 02:04:49;;;;;;;1.42;0.70;;;;;;;;;;5053492;28;20443;-82
2022/07/27 02:07:15;;;;;;;1.00;0.77;;;;;;;;;;5054444;28;20381;-82
2022/07/27 02:09:41;;;;;;;0.90;0.68;;;;;;;;;;5054815;28;20381;-82
2022/07/27 02:14:52;;;;;;;1.10;0.75;;;;;;;;;;5054734;28;20411;-82
2022/07/27 02:17:18;;;;;;;1.97;0.73;;;;;;;;;;5054512;28;20475;-82
2022/07/27 02:19:44;;;;;;;2.35;0.80;;;;;;;;;;5054767;28;20438;-82
2022/07/27 02:22:10;;;;;;;1.52;0.73;;;;;;;;;;5046966;28;20474;-82
2022/07/27 02:24:36;;;;;;;0.93;0.70;;;;;;;;;;5049542;28;20754;-82
2022/07/27 02:27:02;;;;;;;1.10;0.75;;;;;;;;;;5036544;28;20931;-82
2022/07/27 02:29:29;;;;;;;1.85;0.80;;;;;;;;;;5054543;28;20419;-82
2022/07/27 02:31:55;;;;;;;1.80;0.80;;;;;;;;;;5054353;28;20770;-82
2022/07/27 02:34:21;;;;;;;0.90;0.80;;;;;;;;;;5054271;28;20378;-82
2022/07/27 02:36:48;;;;;;;2.47;0.70;;;;;;;;;;5054253;28;20385;-82
2022/07/27 02:39:14;;;;;;;1.90;0.90;;;;;;;;;;5054306;28;20469;-82
2022/07/27 02:41:40;;;;;;;2.80;0.90;;;;;;;;;;5054130;28;20386;-82
2022/07/27 02:44:06;;;;;;;1.50;0.80;;;;;;;;;;5054145;28;20393;-82
2022/07/27 02:46:32;;;;;;;1.30;0.80;;;;;;;;;;5054172;28;20420;-82
2022/07/27 02:48:58;;;;;;;1.38;0.88;;;;;;;;;;5036186;28;20796;-82
2022/07/27 02:51:24;;;;;;;1.33;0.90;;;;;;;;;;5053931;28;20420;-82
2022/07/27 02:53:50;;;;;;;1.77;0.80;;;;;;;;;;5053933;28;20438;-82
2022/07/27 02:56:16;;;;;;;1.60;0.70;;;;;;;;;;5053213;28;20377;-82
2022/07/27 02:58:42;;;;;;;1.27;0.80;;;;;;;;;;5045116;28;20464;-82
2022/07/27 03:01:08;;;;;;;1.33;0.70;;;;;;;;;;5054136;28;20385;-82
2022/07/27 03:03:34;;;;;;;2.13;0.90;;;;;;;;;;5053497;28;20866;-82
2022/07/27 03:06:00;;;;;;;1.30;0.77;;;;;;;;;;5053675;28;20446;-82
2022/07/27 03:08:26;;;;;;;1.73;0.90;;;;;;;;;;5051159;28;20432;-82
2022/07/27 03:10:52;;;;;;;1.35;0.77;;;;;;;;;;5051644;28;20805;-82
2022/07/27 03:13:18;;;;;;;1.30;0.80;;;;;;;;;;5038475;28;20436;-82
2022/07/27 03:15:44;;;;;;;1.40;0.90;;;;;;;;;;5037901;28;20379;-82
2022/07/27 03:18:10;;;;;;;1.60;0.90;;;;;;;;;;5036794;28;20379;-82
2022/07/27 03:20:36;;;;;;;1.60;0.90;;;;;;;;;;5046979;28;20388;-83
2022/07/27 03:23:02;;;;;;;1.35;0.90;;;;;;;;;;5053019;28;20886;-83
2022/07/27 03:25:28;;;;;;;0.90;0.80;;;;;;;;;;5052959;28;20386;-83
2022/07/27 03:27:54;;;;;;;1.90;0.90;;;;;;;;;;5052336;28;20807;-82
2022/07/27 03:30:20;;;;;;;1.00;0.73;;;;;;;;;;5052851;28;20484;-83
2022/07/27 03:32:47;;;;;;;1.30;0.93;;;;;;;;;;5053069;28;20405;-82
2022/07/27 03:35:14;;;;;;;1.33;1.00;;;;;;;;;;5053197;28;20413;-83
2022/07/27 03:37:40;;;;;;;1.63;1.10;;;;;;;;;;5052988;28;20882;-82
2022/07/27 03:40:06;;;;;;;2.00;0.90;;;;;;;;;;5053282;28;20504;-83
2022/07/27 03:42:32;;;;;;;2.78;0.90;;;;;;;;;;5053271;28;20393;-82
2022/07/27 03:44:58;;;;;;;1.73;1.10;;;;;;;;;;5052901;28;20385;-83
2022/07/27 03:47:24;;;;;;;2.22;1.10;;;;;;;;;;5052839;28;20746;-82
2022/07/27 03:49:51;;;;;;;1.83;0.90;;;;;;;;;;5053054;28;20456;-83
2022/07/27 03:52:17;;;;;;;1.55;0.90;;;;;;;;;;5052827;28;20935;-83
2022/07/27 03:54:44;;;;;;;2.03;0.80;;;;;;;;;;5052935;28;20416;-82
2022/07/27 03:57:10;;;;;;;2.38;0.93;;;;;;;;;;5051588;28;20421;-82
2022/07/27 03:59:36;;;;;;;1.50;1.15;;;;;;;;;;5045275;28;20420;-82
2022/07/27 04:02:02;;;;;;;1.48;0.98;;;;;;;;;;5034463;28;20377;-83
2022/07/27 04:04:28;;;;;;;1.13;0.85;;;;;;;;;;5052675;28;20720;-82
2022/07/27 04:06:54;;;;;;;1.33;0.80;;;;;;;;;;5052292;28;20407;-83
2022/07/27 04:09:20;;;;;;;1.60;1.00;;;;;;;;;;5052588;28;20413;-83
2022/07/27 04:11:46;;;;;;;1.73;0.85;;;;;;;;;;5034569;28;20933;-82
2022/07/27 04:14:12;;;;;;;1.80;0.90;;;;;;;;;;5034576;28;20385;-83
2022/07/27 04:16:38;;;;;;;2.50;1.03;;;;;;;;;;5048949;28;20869;-83
2022/07/27 04:19:05;;;;;;;1.30;1.00;;;;;;;;;;5052417;28;20476;-83
2022/07/27 04:21:31;;;;;;;1.63;0.93;;;;;;;;;;5052391;28;20461;-83
2022/07/27 04:23:57;;;;;;;1.23;0.90;;;;;;;;;;5052340;28;20381;-83
2022/07/27 04:26:23;;;;;;;1.30;0.90;;;;;;;;;;5052188;28;20875;-82
2022/07/27 04:28:49;;;;;;;1.75;0.90;;;;;;;;;;5048956;28;20378;-83
2022/07/27 04:31:16;;;;;;;2.20;1.03;;;;;;;;;;5052139;28;20402;-82
2022/07/27 04:33:42;;;;;;;2.78;1.10;;;;;;;;;;5052290;28;20487;-83
2022/07/27 04:36:08;;;;;;;1.00;0.80;;;;;;;;;;5052041;28;20913;-82
2022/07/27 04:38:34;;;;;;;1.90;0.82;;;;;;;;;;5052218;28;20464;-83
2022/07/27 04:41:00;;;;;;;3.20;1.00;;;;;;;;;;5052234;28;20413;-82
2022/07/27 04:43:26;;;;;;;2.40;0.90;;;;;;;;;;5052062;28;20406;-82
2022/07/27 04:45:52;;;;;;;1.43;1.17;;;;;;;;;;5052031;28;20932;-83
2022/07/27 04:48:18;;;;;;;1.38;1.15;;;;;;;;;;5052008;28;20388;-82
2022/07/27 04:50:48;;;;;;;2.03;1.27;;;;;;;;;;5052072;28;20854;-82
2022/07/27 04:53:15;;;;;;;1.58;1.20;;;;;;;;;;5052000;28;20409;-83
2022/07/27 04:55:42;;;;;;;1.65;1.25;;;;;;;;;;5051967;28;20789;-83
2022/07/27 04:58:08;;;;;;;2.08;1.40;;;;;;;;;;5043266;28;20394;-83
2022/07/27 05:00:34;;;;;;;2.38;1.17;;;;;;;;;;5052312;28;20400;-83
2022/07/27 05:03:00;;;;;;;1.52;1.23;;;;;;;;;;5051814;28;20389;-82
2022/07/27 05:05:26;;;;;;;2.57;1.10;;;;;;;;;;5051874;28;20472;-83
2022/07/27 05:07:53;;;;;;;1.23;1.00;;;;;;;;;;5051791;28;20454;-82
2022/07/27 05:10:19;;;;;;;3.10;1.20;;;;;;;;;;5051818;28;20434;-83
2022/07/27 05:12:45;;;;;;;1.83;1.40;;;;;;;;;;5055693;28;20874;-83
2022/07/27 05:15:11;;;;;;;1.63;1.30;;;;;;;;;;5051873;28;20387;-83
2022/07/27 05:17:38;;;;;;;1.58;1.45;;;;;;;;;;5051753;28;20512;-83
2022/07/27 05:20:04;;;;;;;1.52;1.30;;;;;;;;;;5055668;28;20890;-83
2022/07/27 05:22:30;;;;;;;1.98;1.60;;;;;;;;;;5055559;28;20909;-83
2022/07/27 05:24:56;;;;;;;2.60;1.30;;;;;;;;;;5055636;28;20440;-83
2022/07/27 05:27:22;;;;;;;2.70;1.50;;;;;;;;;;5042604;28;20722;-83
2022/07/27 05:29:48;;;;;;;2.17;1.08;;;;;;;;;;5054823;28;20435;-83
2022/07/27 05:32:14;;;;;;;2.33;1.45;;;;;;;;;;5055420;28;20488;-83
2022/07/27 05:34:40;;;;;;;2.35;1.20;;;;;;;;;;5054280;28;20473;-82
2022/07/27 05:37:07;;;;;;;1.73;1.20;;;;;;;;;;5033200;28;20890;-83
2022/07/27 05:39:33;;;;;;;1.55;1.25;;;;;;;;;;5055390;28;20392;-83
2022/07/27 05:41:59;;;;;;;1.47;1.10;;;;;;;;;;5053720;28;20758;-83
2022/07/27 05:44:25;;;;;;;2.00;1.15;;;;;;;;;;5055235;28;20387;-82
2022/07/27 05:46:51;;;;;;;2.15;1.27;;;;;;;;;;5049600;28;20478;-83
2022/07/27 05:49:17;;;;;;;1.80;1.00;;;;;;;;;;5047028;28;20443;-83
2022/07/27 05:51:43;;;;;;;2.08;1.20;;;;;;;;;;5054794;28;20763;-82
2022/07/27 05:54:09;;;;;;;4.35;1.90;;;;;;;;;;5055037;28;20409;-83
2022/07/27 05:56:35;;;;;;;2.37;0.93;;;;;;;;;;5054586;28;20850;-83
2022/07/27 05:59:01;;;;;;;1.83;1.10;;;;;;;;;;5046285;28;20757;-82
2022/07/27 06:01:27;;;;;;;2.13;1.23;;;;;;;;;;5054960;28;20385;-83
2022/07/27 06:03:53;;;;;;;1.75;1.20;;;;;;;;;;5036814;28;20774;-83
2022/07/27 06:09:03;;;;;;;2.75;1.30;;;;;;;;;;5041294;28;20423;-82
2022/07/27 06:11:29;;;;;;;2.50;1.30;;;;;;;;;;5041443;28;20770;-82
2022/07/27 06:13:55;;;;;;;1.55;1.00;;;;;;;;;;5049459;28;20842;-83
2022/07/27 06:16:22;;;;;;;1.88;1.20;;;;;;;;;;5054617;28;20395;-81
2022/07/27 06:18:48;;;;;;;1.85;1.10;;;;;;;;;;5052126;28;20943;-82
2022/07/27 06:21:14;;;;;;;2.45;1.20;;;;;;;;;;5053888;28;20384;-81
2022/07/27 06:23:40;;;;;;;1.40;1.05;;;;;;;;;;5054526;28;20389;-82
2022/07/27 06:26:06;;;;;;;3.58;1.20;;;;;;;;;;5054414;28;20481;-82
2022/07/27 06:28:32;;;;;;;3.20;1.37;;;;;;;;;;5054600;28;20417;-82
2022/07/27 06:30:58;;;;;;;2.55;1.20;;;;;;;;;;5053032;28;20386;-82
2022/07/27 06:33:27;;;;;;;1.40;1.02;;;;;;;;;;5054350;28;20385;-82
2022/07/27 06:35:57;;;;;;;1.52;1.10;;;;;;;;;;5061239;22;20730;-82
2022/07/27 06:38:23;;;;;;;1.52;1.10;;;;;;;;;;5073961;28;20383;-82
2022/07/27 06:40:53;;;;;;;2.08;1.17;;;;;;;;;;5063309;28;20440;-82
2022/07/27 06:43:20;;;;;;;3.08;1.20;;;;;;;;;;5072131;28;20876;-82
2022/07/27 06:45:46;;;;;;;2.13;1.10;;;;;;;;;;5074134;28;20466;-82
2022/07/27 06:48:12;;;;;;;3.55;1.30;;;;;;;;;;5071504;28;20455;-81
2022/07/27 06:50:38;;;;;;;2.10;1.40;;;;;;;;;;5062751;28;20864;-82
2022/07/27 06:53:04;;;;;;;1.55;1.30;;;;;;;;;;5073932;28;20871;-82
2022/07/27 06:55:30;;;;;;;3.38;1.38;;;;;;;;;;5070456;28;20880;-81
2022/07/27 06:57:56;;;;;;;2.90;1.35;;;;;;;;;;5053450;28;20475;-82
2022/07/27 07:00:22;;;;;;;2.85;1.23;;;;;;;;;;5072709;28;20375;-82
2022/07/27 07:02:55;;;;;;;2.47;1.38;;;;;;;;;;5054096;28;20459;-82
2022/07/27 07:05:22;;;;;;;2.28;1.35;;;;;;;;;;5087133;28;20396;-83
2022/07/27 07:07:48;;;;;;;2.35;1.35;;;;;;;;;;5068959;28;20482;-82
2022/07/27 07:10:14;;;;;;;2.30;1.20;;;;;;;;;;5056809;28;20408;-82
2022/07/27 07:12:40;;;;;;;1.95;1.40;;;;;;;;;;5073541;28;20415;-82
2022/07/27 07:15:06;;;;;;;2.53;1.30;;;;;;;;;;5073601;28;20376;-82
2022/07/27 07:17:33;;;;;;;3.17;1.30;;;;;;;;;;5073466;28;20880;-82
2022/07/27 07:19:59;;;;;;;1.75;1.40;;;;;;;;;;5062734;28;20370;-82
2022/07/27 07:22:25;;;;;;;2.70;1.30;;;;;;;;;;5053797;28;20392;-82
2022/07/27 07:24:51;;;;;;;3.17;1.30;;;;;;;;;;5073350;28;20423;-83
2022/07/27 07:27:22;;;;;;;2.80;1.38;;;;;;;;;;5073295;28;20440;-82
2022/07/27 07:29:48;;;;;;;2.35;1.48;;;;;;;;;;5073451;28;20380;-82
2022/07/27 07:32:15;;;;;;;1.80;1.20;;;;;;;;;;5073211;28;20888;-82
2022/07/27 07:34:41;;;;;;;1.80;1.25;;;;;;;;;;5073085;28;20386;-82
2022/07/27 07:37:07;;;;;;;1.65;1.20;;;;;;;;;;5072857;28;20510;-82
2022/07/27 07:39:33;;;;;;;1.77;1.10;;;;;;;;;;5073008;28;20468;-82
2022/07/27 07:41:59;;;;;;;1.77;1.10;;;;;;;;;;5072724;28;20824;-82
2022/07/27 07:44:25;;;;;;;1.25;1.10;;;;;;;;;;5072943;28;20379;-82
2022/07/27 07:46:51;;;;;;;2.10;1.40;;;;;;;;;;5072759;28;20761;-82
2022/07/27 07:49:17;;;;;;;3.50;2.45;;;;;;;;;;5063462;28;20385;-82
2022/07/27 07:51:43;;;;;;;1.30;1.20;;;;;;;;;;5056292;28;20399;-82
2022/07/27 07:54:10;;;;;;;1.83;1.33;;;;;;;;;;5073080;28;20391;-83
2022/07/27 07:56:36;;;;;;;1.40;1.08;;;;;;;;;;5072585;28;20376;-83
2022/07/27 07:59:03;;;;;;;2.37;1.27;;;;;;;;;;5072777;28;20386;-82
2022/07/27 08:01:29;;;;;;;2.50;1.42;;;;;;;;;;5072668;28;20856;-83
2022/07/27 08:03:55;;;;;;;1.90;1.20;;;;;;;;;;5072920;28;20833;-82
2022/07/27 08:06:21;;;;;;;1.98;1.05;;;;;;;;;;5072555;28;20883;-82
2022/07/27 08:08:47;;;;;;;1.80;1.00;;;;;;;;;;5072533;28;20394;-82
2022/07/27 08:11:13;;;;;;;1.50;1.00;;;;;;;;;;5068467;28;20546;-82
2022/07/27 08:13:39;;;;;;;3.20;1.38;;;;;;;;;;5046692;28;20383;-82
2022/07/27 08:16:05;;;;;;;2.42;1.05;;;;;;;;;;5069336;28;20392;-82
2022/07/27 08:18:31;;;;;;;1.60;1.20;;;;;;;;;;5067258;28;20851;-82
2022/07/27 08:20:58;;;;;;;1.73;0.98;;;;;;;;;;5072382;28;20380;-82
2022/07/27 08:23:25;;;;;;;1.90;1.30;;;;;;;;;;5056103;28;20897;-82
2022/07/27 08:25:51;;;;;;;1.80;1.02;;;;;;;;;;5067090;28;20468;-83
2022/07/27 08:28:17;;;;;;;2.53;1.13;;;;;;;;;;5062273;28;20411;-80
2022/07/27 08:30:44;;;;;;;2.28;1.10;;;;;;;;;;5067691;28;20372;-82
2022/07/27 08:33:10;;;;;;;1.90;1.00;;;;;;;;;;5072184;28;20408;-82
2022/07/27 08:35:36;;;;;;;2.42;1.00;;;;;;;;;;5067330;28;20381;-82
2022/07/27 08:38:04;;;;;;;1.60;1.00;;;;;;;;;;5054801;28;20380;-82
2022/07/27 08:40:30;;;;;;;3.22;1.10;;;;;;;;;;5072171;28;20482;-81
2022/07/27 08:42:56;;;;;;;2.08;1.10;;;;;;;;;;5067060;28;20396;-82
2022/07/27 08:45:23;;;;;;;1.30;1.00;;;;;;;;;;5060264;28;20388;-82
2022/07/27 08:47:49;;;;;;;1.25;1.15;;;;;;;;;;5062932;28;20778;-82
2022/07/27 08:50:22;;;;;;;1.08;0.98;;;;;;;;;;5058207;28;20986;-82
2022/07/27 08:52:59;;;;;;;1.90;1.03;;;;;;;;;;5070936;28;20843;-82
2022/07/27 08:55:27;;;;;;;1.92;1.13;;;;;;;;;;5072097;28;20387;-82
2022/07/27 08:57:53;;;;;;;2.30;1.20;;;;;;;;;;5075823;28;20372;-82
2022/07/27 09:00:19;;;;;;;2.47;1.10;;;;;;;;;;5072519;28;20437;-84
2022/07/27 09:02:46;;;;;;;2.03;1.20;;;;;;;;;;5065819;28;20381;-84
2022/07/27 09:05:13;;;;;;;2.45;0.90;;;;;;;;;;5061056;28;20420;-82
2022/07/27 09:07:39;;;;;;;1.10;0.93;;;;;;;;;;5066313;28;20394;-82
2022/07/27 09:10:05;;;;;;;1.88;1.00;;;;;;;;;;5075558;28;20390;-82
2022/07/27 09:12:32;;;;;;;2.30;1.00;;;;;;;;;;5074284;28;20399;-83
2022/07/27 09:15:08;;;;;;;0.93;0.82;;;;;;;;;;5075944;28;20407;-82
2022/07/27 09:17:35;;;;;;;1.83;1.00;;;;;;;;;;5075697;28;20395;-84
2022/07/27 09:20:03;;;;;;;1.48;1.00;;;;;;;;;;5064658;28;20444;-80
2022/07/27 09:22:42;;;;;;;1.75;1.05;;;;;;;;;;5074217;28;20467;-80
2022/07/27 09:25:10;;;;;;;2.33;1.10;;;;;;;;;;5075951;28;20863;-80
2022/07/27 09:27:36;;;;;;;2.28;0.90;;;;;;;;;;5075398;28;20875;-80
2022/07/27 09:30:13;;;;;;;1.85;0.90;;;;;;;;;;5074462;28;20391;-81
2022/07/27 09:32:50;;;;;;;1.70;0.88;;;;;;;;;;5068964;28;20911;-81
2022/07/27 09:35:35;;;;;;;2.05;1.05;;;;;;;;;;5070975;28;20376;-81
2022/07/27 09:38:19;;;;;;;2.70;0.90;;;;;;;;;;5065057;28;20416;-81
2022/07/27 09:43:43;;;;;;;1.10;0.77;;;;;;;;;;5049508;28;20386;-83
2022/07/27 09:46:09;;;;;;;1.80;0.70;;;;;;;;;;5059247;28;20392;-83
2022/07/27 09:48:35;;;;;;;1.27;0.80;;;;;;;;;;5062134;28;20380;-83
2022/07/27 09:51:02;;;;;;;1.35;1.00;;;;;;;;;;5071878;28;20444;-83
2022/07/27 09:53:33;;;;;;;1.90;0.83;;;;;;;;;;5074255;28;20438;-83
2022/07/27 09:56:07;;;;;;;1.55;0.95;;;;;;;;;;5075116;28;20384;-83
2022/07/27 09:58:42;;;;;;;1.60;0.90;;;;;;;;;;5075032;28;20399;-83
2022/07/27 10:01:16;;;;;;;1.90;1.05;;;;;;;;;;5074890;28;20462;-83
2022/07/27 10:03:43;;;;;;;1.42;1.17;;;;;;;;;;5074746;28;20409;-82
2022/07/27 10:06:09;;;;;;;1.35;1.10;;;;;;;;;;5073562;28;20375;-83
2022/07/27 10:08:39;;;;;;;2.42;1.15;;;;;;;;;;5064711;28;20390;-82
2022/07/27 10:11:06;;;;;;;2.17;1.00;;;;;;;;;;5060770;28;20428;-83
2022/07/27 10:13:32;;;;;;;2.05;1.08;;;;;;;;;;5074897;28;20375;-83
2022/07/27 10:15:58;;;;;;;2.60;1.00;;;;;;;;;;5074778;28;20376;-82
2022/07/27 10:18:48;;;;;;;2.40;0.95;;;;;;;;;;5073483;28;20379;-82
2022/07/27 10:21:14;;;;;;;2.78;1.30;;;;;;;;;;5066653;28;20380;-83
2022/07/27 10:23:42;;;;;;;3.20;0.98;;;;;;;;;;5074570;28;20388;-83
2022/07/27 10:26:12;;;;;;;2.33;1.00;;;;;;;;;;5074545;28;20380;-83
2022/07/27 10:28:48;;;;;;;2.13;1.02;;;;;;;;;;5074437;28;20384;-83
2022/07/27 10:31:16;;;;;;;2.20;1.10;;;;;;;;;;5061760;28;20376;-83
2022/07/27 10:33:43;;;;;;;1.75;1.00;;;;;;;;;;5074464;28;20375;-83
2022/07/27 10:36:35;;;;;;;2.17;0.90;;;;;;;;;;5074026;28;20395;-82
2022/07/27 10:39:04;;;;;;;2.65;1.00;;;;;;;;;;5071492;28;20390;-82
2022/07/27 10:41:30;;;;;;;2.27;0.97;;;;;;;;;;5074297;28;20523;-83
2022/07/27 10:44:11;;;;;;;1.33;1.00;;;;;;;;;;5074224;28;20807;-83
2022/07/27 10:46:37;;;;;;;2.95;1.10;;;;;;;;;;5075054;28;20372;-83
2022/07/27 10:49:19;;;;;;;2.47;1.00;;;;;;;;;;5074308;28;20394;-83
2022/07/27 10:51:45;;;;;;;3.00;1.08;;;;;;;;;;5074005;28;20399;-83
2022/07/27 10:54:25;;;;;;;2.28;1.10;;;;;;;;;;5074052;28;20379;-83
2022/07/27 10:56:52;;;;;;;2.20;0.90;;;;;;;;;;5074019;28;20880;-83
2022/07/27 10:59:37;;;;;;;1.52;1.13;;;;;;;;;;5074056;28;20376;-83
2022/07/27 11:02:03;;;;;;;4.47;1.20;;;;;;;;;;5074094;28;20375;-83
2022/07/27 11:04:30;;;;;;;2.10;1.00;;;;;;;;;;5073735;28;20427;-83
2022/07/27 11:06:59;;;;;;;1.60;1.00;;;;;;;;;;5073791;28;20410;-83
2022/07/27 11:09:34;;;;;;;2.75;0.98;;;;;;;;;;5073817;28;20375;-83
2022/07/27 11:12:01;;;;;;;1.65;0.85;;;;;;;;;;5073796;28;20405;-82
2022/07/27 11:14:28;;;;;;;2.15;1.10;;;;;;;;;;5073713;28;20376;-82
2022/07/27 11:16:54;;;;;;;2.30;0.80;;;;;;;;;;5072768;28;20378;-83
2022/07/27 11:19:22;;;;;;;1.63;1.00;;;;;;;;;;5072401;28;20384;-83
2022/07/27 11:21:48;;;;;;;1.60;1.00;;;;;;;;;;5073440;28;20387;-82
2022/07/27 11:24:19;;;;;;;1.67;1.20;;;;;;;;;;5073457;28;20433;-83
2022/07/27 11:26:49;;;;;;;1.50;0.95;;;;;;;;;;5073355;28;20391;-83
2022/07/27 11:29:16;;;;;;;2.20;0.90;;;;;;;;;;5073270;28;20380;-83
2022/07/27 11:31:42;;;;;;;1.88;0.95;;;;;;;;;;5073098;28;20796;-83
2022/07/27 11:34:09;;;;;;;2.53;1.00;;;;;;;;;;5073269;28;20401;-83
2022/07/27 11:36:49;;;;;;;3.47;1.10;;;;;;;;;;5071689;28;20873;-82
2022/07/27 11:39:16;;;;;;;1.45;1.00;;;;;;;;;;5072915;28;20375;-83
2022/07/27 11:41:43;;;;;;;1.27;0.90;;;;;;;;;;5072905;28;20864;-83
2022/07/27 11:44:10;;;;;;;4.15;1.33;;;;;;;;;;5057465;28;20381;-83
2022/07/27 11:46:43;;;;;;;3.65;1.10;;;;;;;;;;5059690;28;20382;-83
2022/07/27 11:49:13;;;;;;;1.73;0.80;;;;;;;;;;5073136;28;20455;-83
2022/07/27 11:51:43;;;;;;;1.42;0.93;;;;;;;;;;5073301;28;20403;-83
2022/07/27 11:54:11;;;;;;;1.00;0.73;;;;;;;;;;5072920;28;20466;-83
2022/07/27 11:56:38;;;;;;;3.20;0.95;;;;;;;;;;5072476;28;20467;-82
2022/07/27 11:59:06;;;;;;;1.70;0.80;;;;;;;;;;5073000;28;20470;-83
2022/07/27 12:01:37;;;;;;;1.42;0.82;;;;;;;;;;5048895;28;20380;-82
2022/07/27 12:04:07;;;;;;;2.15;0.93;;;;;;;;;;5072706;28;20383;-83
2022/07/27 12:06:34;;;;;;;1.27;0.85;;;;;;;;;;5072472;28;20457;-83
2022/07/27 12:09:01;;;;;;;2.08;0.90;;;;;;;;;;5072624;28;20387;-83
2022/07/27 12:11:44;;;;;;;1.70;1.13;;;;;;;;;;5047272;28;20399;-83
2022/07/27 12:14:13;;;;;;;3.05;1.17;;;;;;;;;;5072779;28;20379;-82
2022/07/27 12:16:40;;;;;;;2.30;1.00;;;;;;;;;;5072254;28;20411;-83
2022/07/27 12:19:06;;;;;;;1.13;0.90;;;;;;;;;;5072560;28;20377;-83
2022/07/27 12:21:32;;;;;;;1.10;0.88;;;;;;;;;;5072977;28;20396;-82
2022/07/27 12:23:58;;;;;;;1.50;1.00;;;;;;;;;;5072352;28;20379;-83
2022/07/27 12:26:24;;;;;;;6.13;1.98;;;;;;;;;;5072102;28;20448;-83
2022/07/27 12:29:10;;;;;;;1.55;0.90;;;;;;;;;;5072185;28;20850;-83
2022/07/27 12:31:36;;;;;;;1.27;0.80;;;;;;;;;;5072479;28;20726;-82
2022/07/27 12:34:06;;;;;;;1.60;0.90;;;;;;;;;;5072184;28;20375;-83
2022/07/27 12:36:32;;;;;;;2.63;1.10;;;;;;;;;;5072210;28;20391;-82
2022/07/27 12:38:58;;;;;;;2.95;1.17;;;;;;;;;;5072214;28;20384;-83
2022/07/27 12:41:36;;;;;;;1.70;1.00;;;;;;;;;;5072150;28;20405;-82
2022/07/27 12:44:09;;;;;;;2.60;1.00;;;;;;;;;;5072409;28;20833;-82
2022/07/27 12:50:01;;;;;;;1.75;1.10;;;;;;;;;;5046382;28;20403;-82
2022/07/27 12:52:27;;;;;;;2.00;1.05;;;;;;;;;;5061224;28;20821;-84
2022/07/27 12:54:53;;;;;;;1.45;1.02;;;;;;;;;;5071003;28;20379;-82
2022/07/27 12:57:19;;;;;;;1.88;1.00;;;;;;;;;;5072087;28;20372;-83
2022/07/27 12:59:45;;;;;;;1.40;1.00;;;;;;;;;;5071991;28;20368;-83
2022/07/27 13:02:11;;;;;;;2.78;1.00;;;;;;;;;;5072403;28;20449;-83
2022/07/27 13:04:37;;;;;;;2.38;1.20;;;;;;;;;;5071962;28;20376;-83
2022/07/27 13:07:03;;;;;;;2.72;0.90;;;;;;;;;;5071896;28;20861;-83
2022/07/27 13:09:29;;;;;;;3.90;1.23;;;;;;;;;;5071848;28;20383;-82
2022/07/27 13:11:55;;;;;;;4.13;1.00;;;;;;;;;;5071789;28;20412;-83
2022/07/27 13:14:21;;;;;;;2.28;1.00;;;;;;;;;;5071902;28;20892;-82
2022/07/27 13:16:47;;;;;;;5.25;2.40;;;;;;;;;;5071717;28;20367;-84
2022/07/27 13:19:13;;;;;;;7.10;4.50;;;;;;;;;;5071813;28;20729;-83
2022/07/27 13:21:40;;;;;;;2.97;1.85;;;;;;;;;;5071655;28;20899;-82
2022/07/27 13:24:08;;;;;;;2.63;1.40;;;;;;;;;;5072064;28;20466;-83
2022/07/27 13:26:34;;;;;;;2.90;0.90;;;;;;;;;;5071517;28;20425;-82
2022/07/27 13:29:00;;;;;;;1.80;1.00;;;;;;;;;;5071707;28;20860;-82
2022/07/27 13:31:26;;;;;;;2.50;0.93;;;;;;;;;;5071656;28;20405;-83
2022/07/27 13:33:52;;;;;;;1.90;0.85;;;;;;;;;;5071811;28;20378;-82
2022/07/27 13:36:18;;;;;;;2.85;1.00;;;;;;;;;;5067315;28;20563;-83
2022/07/27 13:38:44;;;;;;;2.55;0.90;;;;;;;;;;5067687;28;20372;-83
2022/07/27 13:41:10;;;;;;;1.30;0.83;;;;;;;;;;5075194;28;20399;-84
2022/07/27 13:43:36;;;;;;;3.83;1.53;;;;;;;;;;5075348;28;20375;-82
2022/07/27 13:46:03;;;;;;;1.40;0.90;;;;;;;;;;5075151;28;20368;-82
2022/07/27 13:48:29;;;;;;;1.65;1.00;;;;;;;;;;5075238;28;20375;-83
2022/07/27 13:50:55;;;;;;;2.20;1.13;;;;;;;;;;5075199;28;20378;-83
2022/07/27 13:53:21;;;;;;;1.75;1.00;;;;;;;;;;5075225;28;20502;-82
2022/07/27 13:55:47;;;;;;;1.58;1.00;;;;;;;;;;5074857;28;20379;-82
2022/07/27 13:58:13;;;;;;;2.60;0.95;;;;;;;;;;5075042;28;20868;-82
2022/07/27 14:00:39;;;;;;;1.30;0.90;;;;;;;;;;5075080;28;20387;-82
2022/07/27 14:03:07;;;;;;;2.07;0.93;;;;;;;;;;5074934;28;20944;-82
2022/07/27 14:05:33;;;;;;;1.08;0.88;;;;;;;;;;5059653;28;20380;-82
2022/07/27 14:07:59;;;;;;;1.27;0.80;;;;;;;;;;5059974;28;20396;-82
2022/07/27 14:10:31;;;;;;;1.42;0.80;;;;;;;;;;5061919;28;20388;-83
2022/07/27 14:13:07;;;;;;;2.30;0.90;;;;;;;;;;5075040;28;20899;-83
2022/07/27 14:15:33;;;;;;;2.28;1.00;;;;;;;;;;5074961;28;20379;-83
2022/07/27 14:17:59;;;;;;;2.45;1.00;;;;;;;;;;5074728;28;20376;-83
2022/07/27 14:20:25;;;;;;;1.20;0.90;;;;;;;;;;5074658;28;20376;-82
2022/07/27 14:22:51;;;;;;;3.10;1.02;;;;;;;;;;5074889;28;20840;-83
2022/07/27 14:25:17;;;;;;;2.90;0.95;;;;;;;;;;5074411;28;20380;-83
2022/07/27 14:27:43;;;;;;;1.85;1.00;;;;;;;;;;5074489;28;20463;-82
2022/07/27 14:30:09;;;;;;;1.25;1.00;;;;;;;;;;5074477;28;20924;-83
2022/07/27 14:32:35;;;;;;;1.88;1.02;;;;;;;;;;5074418;28;20410;-83
2022/07/27 14:35:02;;;;;;;2.30;1.10;;;;;;;;;;5074417;28;20459;-83
2022/07/27 14:37:28;;;;;;;2.38;1.13;;;;;;;;;;5074188;28;20395;-83
2022/07/27 14:39:55;;;;;;;2.80;1.27;;;;;;;;;;5074476;28;20426;-83
2022/07/27 14:42:22;;;;;;;2.43;1.20;;;;;;;;;;5074492;28;20783;-83
2022/07/27 14:44:48;;;;;;;2.25;1.00;;;;;;;;;;5074461;28;20740;-82
2022/07/27 14:47:14;;;;;;;1.35;1.02;;;;;;;;;;5074161;28;20864;-82
2022/07/27 14:49:40;;;;;;;2.22;1.10;;;;;;;;;;5074131;28;20384;-82
2022/07/27 14:52:12;;;;;;;2.90;1.27;;;;;;;;;;5072979;28;20414;-83
2022/07/27 14:54:38;;;;;;;2.13;1.00;;;;;;;;;;5074059;28;20429;-82
2022/07/27 14:57:04;;;;;;;1.30;1.10;;;;;;;;;;5072553;28;20894;-82